Time;durP1;ratioP1;P1;durP2;ratioP2;P2;SDS_P1;SDS_P2;PMS_P1;PMS_P2;Temp;Humidity;BMP_temperature;BMP_pressure;BME280_temperature;BME280_humidity;BME280_pressure;Samples;Min_cycle;Max_cycle;Signal;HPM_P1;HPM_P2
2022/07/19 00:00:14;;;;;;;3.58;2.33;;;;;;;;;;5037253;28;20182;-68
2022/07/19 00:02:40;;;;;;;8.40;2.97;;;;;;;;;;5021999;28;22435;-68
2022/07/19 00:05:08;;;;;;;5.35;2.83;;;;;;;;;;5029534;28;20205;-68
2022/07/19 00:07:33;;;;;;;7.35;3.00;;;;;;;;;;5040698;28;20186;-68
2022/07/19 00:09:59;;;;;;;6.82;3.05;;;;;;;;;;5030580;28;20197;-67
2022/07/19 00:12:24;;;;;;;4.95;2.95;;;;;;;;;;5016362;28;20181;-68
2022/07/19 00:14:50;;;;;;;8.63;3.00;;;;;;;;;;5023673;28;20186;-68
2022/07/19 00:17:15;;;;;;;4.75;3.20;;;;;;;;;;5030113;28;20638;-68
2022/07/19 00:19:40;;;;;;;7.05;3.58;;;;;;;;;;5029998;28;20186;-68
2022/07/19 00:22:06;;;;;;;6.43;3.15;;;;;;;;;;5020854;28;20190;-68
2022/07/19 00:24:32;;;;;;;8.25;3.83;;;;;;;;;;5029481;28;20284;-67
2022/07/19 00:26:57;;;;;;;7.03;3.38;;;;;;;;;;5013843;28;20191;-67
2022/07/19 00:29:22;;;;;;;7.20;3.33;;;;;;;;;;5042586;28;20191;-67
2022/07/19 00:31:48;;;;;;;5.55;3.45;;;;;;;;;;5021809;28;20195;-68
2022/07/19 00:34:13;;;;;;;8.15;3.60;;;;;;;;;;5021545;28;20185;-68
2022/07/19 00:36:38;;;;;;;7.45;3.63;;;;;;;;;;5035694;28;20181;-68
2022/07/19 00:39:04;;;;;;;8.05;3.53;;;;;;;;;;5029316;28;20190;-68
2022/07/19 00:41:29;;;;;;;7.57;3.22;;;;;;;;;;5035424;28;20240;-68
2022/07/19 00:43:56;;;;;;;7.20;3.40;;;;;;;;;;5020039;28;20618;-68
2022/07/19 00:46:22;;;;;;;5.05;3.08;;;;;;;;;;5018375;28;20175;-67
2022/07/19 00:48:49;;;;;;;5.57;3.80;;;;;;;;;;5019857;28;20315;-67
2022/07/19 00:51:16;;;;;;;8.73;3.60;;;;;;;;;;5017650;28;20270;-67
2022/07/19 00:53:43;;;;;;;7.30;3.80;;;;;;;;;;5038949;28;20178;-68
2022/07/19 00:56:10;;;;;;;5.00;3.10;;;;;;;;;;5030207;28;20189;-68
2022/07/19 00:58:38;;;;;;;4.82;3.13;;;;;;;;;;5019961;28;20186;-68
2022/07/19 01:01:05;;;;;;;5.90;2.83;;;;;;;;;;5027740;28;20186;-68
2022/07/19 01:03:34;;;;;;;5.45;3.33;;;;;;;;;;5047430;28;20198;-68
2022/07/19 01:05:59;;;;;;;6.65;3.90;;;;;;;;;;5028928;28;20213;-68
2022/07/19 01:08:25;;;;;;;8.73;3.30;;;;;;;;;;5039112;28;20294;-68
2022/07/19 01:10:51;;;;;;;4.18;3.00;;;;;;;;;;5031301;28;20185;-69
2022/07/19 01:13:16;;;;;;;5.45;3.70;;;;;;;;;;5027326;28;20179;-67
2022/07/19 01:15:42;;;;;;;4.55;3.60;;;;;;;;;;5020389;28;20502;-67
2022/07/19 01:18:08;;;;;;;7.25;3.55;;;;;;;;;;5015698;28;20548;-68
2022/07/19 01:20:34;;;;;;;4.15;2.97;;;;;;;;;;5023490;28;20174;-67
2022/07/19 01:22:59;;;;;;;5.88;3.40;;;;;;;;;;5027602;28;20223;-67
2022/07/19 01:25:30;;;;;;;6.28;3.80;;;;;;;;;;5024907;28;20182;-67
2022/07/19 01:27:56;;;;;;;6.38;3.80;;;;;;;;;;5021051;28;20221;-67
2022/07/19 01:30:24;;;;;;;6.63;4.05;;;;;;;;;;5026779;28;20724;-68
2022/07/19 01:32:50;;;;;;;7.28;4.00;;;;;;;;;;5027811;28;20205;-68
2022/07/19 01:35:16;;;;;;;7.05;4.25;;;;;;;;;;5015843;28;20187;-67
2022/07/19 01:37:42;;;;;;;7.43;4.43;;;;;;;;;;5026980;28;20178;-67
2022/07/19 01:40:11;;;;;;;7.28;4.20;;;;;;;;;;5015385;28;20578;-68
2022/07/19 01:42:36;;;;;;;10.35;4.72;;;;;;;;;;5023748;28;20723;-67
2022/07/19 01:45:03;;;;;;;6.97;4.60;;;;;;;;;;5024366;28;20210;-68
2022/07/19 01:47:29;;;;;;;7.90;4.88;;;;;;;;;;5025876;28;20200;-67
2022/07/19 01:49:54;;;;;;;7.40;5.10;;;;;;;;;;5027734;28;20709;-67
2022/07/19 01:52:20;;;;;;;7.80;5.25;;;;;;;;;;5020907;28;20198;-67
2022/07/19 01:54:45;;;;;;;6.68;4.88;;;;;;;;;;5027677;28;20182;-68
2022/07/19 01:57:11;;;;;;;9.73;5.32;;;;;;;;;;5019798;28;20304;-67
2022/07/19 01:59:36;;;;;;;7.70;4.82;;;;;;;;;;5026064;28;20685;-68
2022/07/19 02:02:03;;;;;;;6.82;5.38;;;;;;;;;;5020630;28;20273;-68
2022/07/19 02:04:28;;;;;;;7.45;4.90;;;;;;;;;;5021686;28;20262;-68
2022/07/19 02:06:54;;;;;;;8.63;5.00;;;;;;;;;;5019113;28;20182;-68
2022/07/19 02:09:19;;;;;;;8.00;4.68;;;;;;;;;;5016071;28;20220;-68
2022/07/19 02:11:45;;;;;;;6.82;4.80;;;;;;;;;;5018700;28;20549;-68
2022/07/19 02:14:10;;;;;;;6.00;5.00;;;;;;;;;;5025942;28;20190;-68
2022/07/19 02:16:37;;;;;;;7.55;5.07;;;;;;;;;;5027363;28;20206;-68
2022/07/19 02:19:04;;;;;;;7.30;4.63;;;;;;;;;;5027214;28;20186;-69
2022/07/19 02:21:30;;;;;;;6.80;3.90;;;;;;;;;;5031321;28;20292;-67
2022/07/19 02:23:55;;;;;;;9.93;4.47;;;;;;;;;;5033092;28;20191;-67
2022/07/19 02:26:21;;;;;;;6.95;4.43;;;;;;;;;;5027216;28;20214;-67
2022/07/19 02:28:46;;;;;;;8.93;4.10;;;;;;;;;;5036296;28;20524;-68
2022/07/19 02:31:12;;;;;;;7.38;4.28;;;;;;;;;;5030089;28;20230;-68
2022/07/19 02:33:37;;;;;;;8.32;4.80;;;;;;;;;;5028706;28;20209;-67
2022/07/19 02:36:03;;;;;;;8.52;4.70;;;;;;;;;;5014638;28;20669;-68
2022/07/19 02:38:29;;;;;;;5.70;4.30;;;;;;;;;;5034513;28;20197;-68
2022/07/19 02:40:55;;;;;;;6.30;4.63;;;;;;;;;;5020946;28;20277;-69
2022/07/19 02:43:20;;;;;;;9.07;5.20;;;;;;;;;;5023744;28;20218;-68
2022/07/19 02:45:45;;;;;;;9.23;5.45;;;;;;;;;;5027254;28;20182;-68
2022/07/19 02:48:11;;;;;;;6.78;4.97;;;;;;;;;;5031612;28;20188;-68
2022/07/19 02:50:36;;;;;;;8.65;5.45;;;;;;;;;;5042148;28;20209;-68
2022/07/19 02:53:02;;;;;;;7.13;5.25;;;;;;;;;;5034152;28;20216;-68
2022/07/19 02:55:28;;;;;;;7.10;5.68;;;;;;;;;;5047979;28;20181;-68
2022/07/19 02:57:53;;;;;;;7.93;6.07;;;;;;;;;;5012472;28;20663;-68
2022/07/19 03:00:18;;;;;;;9.07;5.65;;;;;;;;;;5016668;28;20194;-68
2022/07/19 03:02:44;;;;;;;9.18;5.75;;;;;;;;;;5023712;28;20187;-68
2022/07/19 03:05:09;;;;;;;8.02;5.57;;;;;;;;;;5021334;28;20194;-67
2022/07/19 03:07:35;;;;;;;7.47;5.40;;;;;;;;;;5031000;28;20182;-67
2022/07/19 03:10:00;;;;;;;7.60;5.82;;;;;;;;;;5025716;28;20199;-67
2022/07/19 03:12:26;;;;;;;7.28;5.65;;;;;;;;;;5016691;28;20194;-69
2022/07/19 03:14:51;;;;;;;10.45;6.43;;;;;;;;;;5021861;28;20283;-68
2022/07/19 03:17:16;;;;;;;7.80;5.55;;;;;;;;;;5019070;28;20689;-68
2022/07/19 03:19:42;;;;;;;10.75;6.80;;;;;;;;;;5041307;28;20185;-68
2022/07/19 03:22:07;;;;;;;8.02;6.55;;;;;;;;;;5028766;28;20182;-68
2022/07/19 03:24:33;;;;;;;9.60;6.88;;;;;;;;;;5036938;28;20265;-68
2022/07/19 03:26:58;;;;;;;7.35;6.22;;;;;;;;;;5028667;28;20190;-68
2022/07/19 03:29:24;;;;;;;11.40;6.90;;;;;;;;;;5032919;28;20670;-68
2022/07/19 03:31:49;;;;;;;11.82;6.95;;;;;;;;;;5020730;28;20837;-68
2022/07/19 03:34:14;;;;;;;9.50;7.30;;;;;;;;;;5037007;28;20267;-68
2022/07/19 03:36:40;;;;;;;10.63;6.82;;;;;;;;;;5033697;28;20174;-67
2022/07/19 03:39:05;;;;;;;10.27;7.70;;;;;;;;;;5015964;28;20282;-67
2022/07/19 03:41:31;;;;;;;8.77;7.15;;;;;;;;;;5021506;28;20190;-68
2022/07/19 03:43:56;;;;;;;14.05;7.65;;;;;;;;;;5013891;28;20289;-68
2022/07/19 03:46:22;;;;;;;12.88;7.53;;;;;;;;;;5015158;28;20585;-68
2022/07/19 03:48:47;;;;;;;9.23;7.22;;;;;;;;;;5029230;28;20221;-68
2022/07/19 03:51:13;;;;;;;10.88;7.28;;;;;;;;;;5031464;28;20193;-67
2022/07/19 03:53:39;;;;;;;10.93;7.10;;;;;;;;;;5024249;28;20266;-67
2022/07/19 03:56:05;;;;;;;9.27;6.75;;;;;;;;;;5033224;28;20189;-67
2022/07/19 03:58:30;;;;;;;8.80;6.15;;;;;;;;;;5034531;28;20657;-67
2022/07/19 04:00:56;;;;;;;9.88;6.82;;;;;;;;;;5024596;28;20296;-67
2022/07/19 04:03:22;;;;;;;10.02;6.35;;;;;;;;;;5028142;28;20199;-67
2022/07/19 04:05:47;;;;;;;6.63;5.70;;;;;;;;;;5035491;28;20389;-68
2022/07/19 04:08:14;;;;;;;8.75;7.10;;;;;;;;;;5033330;28;20185;-68
2022/07/19 04:10:40;;;;;;;9.52;7.03;;;;;;;;;;5036938;28;20210;-68
2022/07/19 04:13:05;;;;;;;11.23;7.25;;;;;;;;;;5032101;28;20752;-68
2022/07/19 04:15:31;;;;;;;7.82;6.80;;;;;;;;;;5029119;28;20265;-68
2022/07/19 04:17:56;;;;;;;9.65;7.13;;;;;;;;;;5025939;28;20189;-67
2022/07/19 04:20:21;;;;;;;12.30;6.57;;;;;;;;;;5027116;28;20190;-67
2022/07/19 04:22:47;;;;;;;8.75;6.43;;;;;;;;;;5025599;28;20343;-67
2022/07/19 04:25:12;;;;;;;9.65;6.20;;;;;;;;;;5019723;28;20219;-67
2022/07/19 04:27:37;;;;;;;11.63;7.05;;;;;;;;;;5024452;28;20664;-68
2022/07/19 04:30:04;;;;;;;8.20;6.75;;;;;;;;;;5022048;28;20593;-68
2022/07/19 04:32:29;;;;;;;8.88;7.13;;;;;;;;;;5031657;28;20532;-68
2022/07/19 04:34:55;;;;;;;9.05;6.70;;;;;;;;;;5020025;28;20182;-68
2022/07/19 04:37:21;;;;;;;8.23;6.18;;;;;;;;;;5030326;28;20707;-68
2022/07/19 04:39:46;;;;;;;10.48;7.55;;;;;;;;;;5028076;28;20194;-67
2022/07/19 04:42:11;;;;;;;9.60;6.63;;;;;;;;;;5028222;28;20186;-68
2022/07/19 04:44:37;;;;;;;11.65;7.38;;;;;;;;;;5026517;28;20202;-68
2022/07/19 04:47:03;;;;;;;9.18;6.25;;;;;;;;;;5022947;28;20181;-68
2022/07/19 04:49:28;;;;;;;9.35;6.22;;;;;;;;;;5046627;28;20177;-68
2022/07/19 04:51:53;;;;;;;8.88;5.93;;;;;;;;;;5032964;28;20205;-68
2022/07/19 04:54:19;;;;;;;8.93;6.30;;;;;;;;;;5042192;28;20166;-68
2022/07/19 04:56:44;;;;;;;10.50;6.80;;;;;;;;;;5026370;28;20261;-69
2022/07/19 04:59:10;;;;;;;11.32;7.57;;;;;;;;;;5022028;28;20198;-68
2022/07/19 05:01:35;;;;;;;8.65;6.57;;;;;;;;;;5024038;28;20722;-68
2022/07/19 05:04:00;;;;;;;8.75;6.47;;;;;;;;;;5024068;28;20582;-69
2022/07/19 05:06:26;;;;;;;7.88;6.55;;;;;;;;;;5027181;28;20182;-69
2022/07/19 05:08:56;;;;;;;11.05;6.60;;;;;;;;;;5026363;28;20543;-69
2022/07/19 05:11:21;;;;;;;11.68;7.10;;;;;;;;;;5025615;28;20190;-69
2022/07/19 05:13:47;;;;;;;10.00;6.82;;;;;;;;;;5017233;28;20170;-69
2022/07/19 05:16:12;;;;;;;8.63;6.25;;;;;;;;;;5026864;28;20261;-68
2022/07/19 05:18:37;;;;;;;7.75;6.40;;;;;;;;;;5030296;28;20544;-68
2022/07/19 05:21:03;;;;;;;9.02;6.45;;;;;;;;;;5034003;28;20324;-68
2022/07/19 05:23:28;;;;;;;9.38;7.28;;;;;;;;;;5030550;28;20205;-68
2022/07/19 05:25:54;;;;;;;11.35;6.53;;;;;;;;;;5020558;28;20263;-69
2022/07/19 05:28:19;;;;;;;12.18;6.47;;;;;;;;;;5030083;28;20189;-69
2022/07/19 05:30:44;;;;;;;10.00;6.97;;;;;;;;;;5025778;28;20260;-69
2022/07/19 05:33:10;;;;;;;9.55;6.95;;;;;;;;;;5029351;28;20177;-69
2022/07/19 05:35:35;;;;;;;11.45;7.28;;;;;;;;;;5045149;28;20181;-69
2022/07/19 05:38:01;;;;;;;10.93;7.00;;;;;;;;;;5026974;28;20200;-68
2022/07/19 05:40:26;;;;;;;8.18;6.63;;;;;;;;;;5020510;28;20178;-68
2022/07/19 05:42:51;;;;;;;9.50;6.40;;;;;;;;;;5034852;28;20177;-68
2022/07/19 05:45:17;;;;;;;8.35;6.22;;;;;;;;;;5023628;28;20271;-68
2022/07/19 05:47:42;;;;;;;12.32;6.90;;;;;;;;;;5019978;28;20934;-69
2022/07/19 05:50:08;;;;;;;11.60;6.72;;;;;;;;;;5035591;28;20655;-68
2022/07/19 05:52:33;;;;;;;14.45;6.60;;;;;;;;;;5024312;28;20814;-67
2022/07/19 05:54:58;;;;;;;10.35;6.43;;;;;;;;;;5022484;28;20210;-68
2022/07/19 05:57:24;;;;;;;9.63;6.20;;;;;;;;;;5030353;28;20520;-69
2022/07/19 05:59:49;;;;;;;10.25;6.55;;;;;;;;;;5025199;28;20642;-69
2022/07/19 06:02:16;;;;;;;9.27;6.43;;;;;;;;;;5030664;28;20254;-68
2022/07/19 06:04:41;;;;;;;8.73;6.38;;;;;;;;;;5033708;28;20212;-68
2022/07/19 06:07:07;;;;;;;10.43;6.15;;;;;;;;;;5029002;28;20786;-69
2022/07/19 06:09:32;;;;;;;7.50;5.82;;;;;;;;;;5034957;28;20339;-68
2022/07/19 06:11:57;;;;;;;10.20;5.90;;;;;;;;;;5044436;28;20200;-68
2022/07/19 06:14:22;;;;;;;9.90;5.78;;;;;;;;;;5045837;28;20184;-69
2022/07/19 06:16:48;;;;;;;10.90;6.25;;;;;;;;;;5047368;28;20173;-68
2022/07/19 06:19:13;;;;;;;10.10;6.22;;;;;;;;;;5040545;28;20177;-69
2022/07/19 06:21:39;;;;;;;9.38;5.80;;;;;;;;;;5044405;28;20174;-68
2022/07/19 06:24:04;;;;;;;7.72;5.72;;;;;;;;;;5042003;28;20212;-69
2022/07/19 06:26:30;;;;;;;8.05;5.78;;;;;;;;;;5045097;28;20184;-68
2022/07/19 06:28:55;;;;;;;12.43;6.15;;;;;;;;;;5035941;28;20665;-68
2022/07/19 06:31:21;;;;;;;12.45;5.80;;;;;;;;;;5038794;28;20274;-68
2022/07/19 06:33:48;;;;;;;17.90;6.03;;;;;;;;;;5040182;28;20169;-69
2022/07/19 06:36:15;;;;;;;8.75;5.53;;;;;;;;;;5045069;28;20170;-69
2022/07/19 06:38:42;;;;;;;8.55;5.13;;;;;;;;;;5040863;28;20581;-69
2022/07/19 06:41:07;;;;;;;9.63;5.50;;;;;;;;;;5043083;28;20184;-69
2022/07/19 06:43:33;;;;;;;9.52;5.35;;;;;;;;;;5045669;28;20205;-68
2022/07/19 06:45:59;;;;;;;8.20;4.72;;;;;;;;;;5032522;28;20194;-67
2022/07/19 06:48:24;;;;;;;9.73;5.15;;;;;;;;;;5040171;28;20252;-68
2022/07/19 06:50:50;;;;;;;9.77;4.95;;;;;;;;;;5026927;28;20526;-70
2022/07/19 06:53:15;;;;;;;10.40;5.07;;;;;;;;;;5038768;28;20236;-69
2022/07/19 06:55:40;;;;;;;11.43;4.97;;;;;;;;;;5042882;28;20194;-68
2022/07/19 06:58:06;;;;;;;10.38;4.68;;;;;;;;;;5042665;28;20185;-67
2022/07/19 07:00:31;;;;;;;9.27;4.93;;;;;;;;;;5047492;28;20277;-68
2022/07/19 07:02:57;;;;;;;8.48;4.57;;;;;;;;;;5035845;28;20189;-68
2022/07/19 07:05:22;;;;;;;6.47;4.00;;;;;;;;;;5047681;28;20280;-68
2022/07/19 07:07:51;;;;;;;9.93;4.15;;;;;;;;;;5036559;28;20194;-68
2022/07/19 07:10:17;;;;;;;9.63;4.13;;;;;;;;;;5027349;28;20185;-68
2022/07/19 07:12:42;;;;;;;7.55;4.00;;;;;;;;;;5032919;28;20239;-68
2022/07/19 07:15:08;;;;;;;6.00;3.95;;;;;;;;;;5028781;28;20181;-67
2022/07/19 07:17:34;;;;;;;8.70;3.90;;;;;;;;;;5037722;28;20191;-68
2022/07/19 07:20:00;;;;;;;7.65;3.95;;;;;;;;;;5023277;28;20239;-68
2022/07/19 07:22:26;;;;;;;9.55;3.88;;;;;;;;;;5029599;28;20701;-68
2022/07/19 07:24:51;;;;;;;6.25;3.70;;;;;;;;;;5025630;28;20624;-69
2022/07/19 07:27:17;;;;;;;9.02;3.75;;;;;;;;;;5020846;28;20738;-69
2022/07/19 07:29:42;;;;;;;9.38;3.40;;;;;;;;;;5025944;28;20312;-69
2022/07/19 07:32:08;;;;;;;7.68;3.25;;;;;;;;;;5023992;28;20206;-68
2022/07/19 07:34:33;;;;;;;8.50;3.42;;;;;;;;;;5013098;28;20183;-67
2022/07/19 07:36:58;;;;;;;7.63;3.05;;;;;;;;;;5028417;28;20178;-68
2022/07/19 07:39:24;;;;;;;7.35;3.38;;;;;;;;;;5017564;28;20288;-69
2022/07/19 07:41:49;;;;;;;4.20;2.72;;;;;;;;;;5033415;28;20208;-69
2022/07/19 07:44:14;;;;;;;8.38;3.03;;;;;;;;;;5024514;28;20481;-68
2022/07/19 07:46:40;;;;;;;7.40;3.00;;;;;;;;;;5033137;28;20185;-68
2022/07/19 07:49:05;;;;;;;6.20;2.60;;;;;;;;;;5028832;28;20181;-68
2022/07/19 07:51:31;;;;;;;5.18;2.50;;;;;;;;;;5019319;28;20701;-69
2022/07/19 07:53:58;;;;;;;6.60;3.00;;;;;;;;;;5031947;28;20239;-73
2022/07/19 07:56:24;;;;;;;7.15;2.60;;;;;;;;;;5028198;28;20189;-69
2022/07/19 07:58:50;;;;;;;6.78;2.33;;;;;;;;;;5021585;28;20265;-69
2022/07/19 08:01:15;;;;;;;3.95;2.25;;;;;;;;;;5022806;28;20184;-69
2022/07/19 08:03:41;;;;;;;8.02;2.67;;;;;;;;;;5029569;28;20638;-69
2022/07/19 08:06:06;;;;;;;3.95;2.25;;;;;;;;;;5029369;28;20182;-69
2022/07/19 08:08:32;;;;;;;6.78;2.55;;;;;;;;;;5026281;28;20199;-70
2022/07/19 08:10:57;;;;;;;6.47;2.47;;;;;;;;;;5028776;28;20186;-69
2022/07/19 08:13:23;;;;;;;7.05;2.42;;;;;;;;;;5031137;28;20637;-69
2022/07/19 08:15:49;;;;;;;6.72;2.50;;;;;;;;;;5034273;28;20182;-69
2022/07/19 08:18:15;;;;;;;7.93;2.15;;;;;;;;;;5034330;28;20598;-69
2022/07/19 08:20:40;;;;;;;8.68;2.50;;;;;;;;;;5038851;28;20177;-69
2022/07/19 08:23:06;;;;;;;6.25;2.38;;;;;;;;;;5041668;28;20294;-71
2022/07/19 08:25:33;;;;;;;4.32;2.30;;;;;;;;;;5029763;28;20533;-69
2022/07/19 08:27:59;;;;;;;5.22;2.40;;;;;;;;;;5035752;28;20174;-69
2022/07/19 08:30:24;;;;;;;7.18;2.20;;;;;;;;;;5028005;28;20255;-70
2022/07/19 08:32:49;;;;;;;4.32;2.47;;;;;;;;;;5034396;28;20206;-71
2022/07/19 08:35:15;;;;;;;4.70;2.05;;;;;;;;;;5024836;28;20225;-68
2022/07/19 08:37:40;;;;;;;6.43;2.83;;;;;;;;;;5026897;28;20208;-69
2022/07/19 08:40:06;;;;;;;9.07;2.25;;;;;;;;;;5033106;28;20200;-70
2022/07/19 08:42:32;;;;;;;9.95;2.22;;;;;;;;;;5040144;28;20189;-69
2022/07/19 08:45:01;;;;;;;7.45;2.10;;;;;;;;;;5039693;28;20204;-69
2022/07/19 08:47:28;;;;;;;4.18;2.33;;;;;;;;;;5033891;28;20174;-69
2022/07/19 08:49:54;;;;;;;9.43;2.53;;;;;;;;;;5039568;28;20582;-68
2022/07/19 08:52:20;;;;;;;7.10;2.35;;;;;;;;;;5035786;28;20173;-70
2022/07/19 08:54:45;;;;;;;9.48;2.35;;;;;;;;;;5019509;28;20303;-69
2022/07/19 08:59:55;;;;;;;3.88;2.03;;;;;;;;;;5042638;28;20246;-69
2022/07/19 09:02:20;;;;;;;5.22;2.00;;;;;;;;;;5036263;28;20272;-68
2022/07/19 09:05:07;;;;;;;6.18;2.20;;;;;;;;;;5038486;28;20339;-69
2022/07/19 09:07:34;;;;;;;3.42;2.05;;;;;;;;;;5041199;28;20185;-69
2022/07/19 09:10:19;;;;;;;4.07;2.17;;;;;;;;;;5040284;28;20184;-69
2022/07/19 09:12:59;;;;;;;4.82;2.65;;;;;;;;;;5044616;28;20177;-69
2022/07/19 09:15:54;;;;;;;3.88;1.88;;;;;;;;;;5033791;28;20531;-70
2022/07/19 09:18:33;;;;;;;5.65;1.98;;;;;;;;;;5036768;28;20176;-71
2022/07/19 09:21:00;;;;;;;7.93;2.55;;;;;;;;;;5040980;28;20637;-70
2022/07/19 09:23:26;;;;;;;3.58;2.08;;;;;;;;;;5028295;28;20221;-69
2022/07/19 09:25:53;;;;;;;6.43;2.30;;;;;;;;;;5032021;28;20208;-67
2022/07/19 09:28:20;;;;;;;5.90;2.35;;;;;;;;;;5043176;28;20184;-68
2022/07/19 09:30:51;;;;;;;4.53;2.10;;;;;;;;;;5028253;28;20706;-69
2022/07/19 09:33:22;;;;;;;4.13;2.00;;;;;;;;;;5037489;28;20577;-69
2022/07/19 09:35:56;;;;;;;5.82;2.47;;;;;;;;;;5038346;28;20232;-68
2022/07/19 09:38:28;;;;;;;6.95;2.50;;;;;;;;;;5029089;28;20194;-67
2022/07/19 09:41:07;;;;;;;3.88;2.20;;;;;;;;;;5033041;28;20327;-66
2022/07/19 09:43:51;;;;;;;6.43;2.30;;;;;;;;;;5043229;28;20679;-67
2022/07/19 09:46:35;;;;;;;2.72;1.90;;;;;;;;;;5045862;28;20193;-67
2022/07/19 09:49:08;;;;;;;5.40;2.25;;;;;;;;;;5036295;28;20637;-68
2022/07/19 09:51:40;;;;;;;3.17;2.00;;;;;;;;;;5034139;28;20189;-68
2022/07/19 09:54:07;;;;;;;2.30;2.10;;;;;;;;;;5048342;28;20177;-71
2022/07/19 09:56:33;;;;;;;4.05;1.98;;;;;;;;;;5043424;28;20262;-69
2022/07/19 09:58:59;;;;;;;2.95;2.10;;;;;;;;;;5046107;28;20658;-69
2022/07/19 10:01:26;;;;;;;5.85;2.17;;;;;;;;;;5034982;28;20529;-68
2022/07/19 10:03:56;;;;;;;3.38;2.30;;;;;;;;;;5027247;28;20202;-67
2022/07/19 10:06:23;;;;;;;7.22;2.47;;;;;;;;;;5030810;28;20192;-67
2022/07/19 10:08:50;;;;;;;5.97;2.20;;;;;;;;;;5047585;28;20181;-64
2022/07/19 10:11:15;;;;;;;4.53;2.47;;;;;;;;;;5032879;28;20186;-66
2022/07/19 10:13:41;;;;;;;4.47;2.28;;;;;;;;;;5045399;28;20547;-65
2022/07/19 10:16:13;;;;;;;4.43;2.58;;;;;;;;;;5037380;28;20185;-67
2022/07/19 10:18:50;;;;;;;2.40;1.92;;;;;;;;;;5041027;28;20193;-66
2022/07/19 10:21:16;;;;;;;6.22;3.00;;;;;;;;;;5040852;28;20230;-65
2022/07/19 10:23:50;;;;;;;4.38;2.10;;;;;;;;;;5048871;28;20212;-68
2022/07/19 10:26:42;;;;;;;3.78;1.92;;;;;;;;;;5047214;28;20644;-68
2022/07/19 10:29:12;;;;;;;4.55;2.30;;;;;;;;;;5037180;28;20192;-65
2022/07/19 10:31:38;;;;;;;10.98;2.42;;;;;;;;;;5045187;28;20233;-72
2022/07/19 10:34:20;;;;;;;7.40;2.10;;;;;;;;;;5047137;28;20199;-68
2022/07/19 10:36:47;;;;;;;3.75;2.17;;;;;;;;;;5046978;28;20207;-68
2022/07/19 10:39:21;;;;;;;3.63;1.90;;;;;;;;;;5045947;28;20177;-69
2022/07/19 10:42:05;;;;;;;4.30;1.98;;;;;;;;;;5042754;28;20207;-67
2022/07/19 10:44:30;;;;;;;3.78;2.03;;;;;;;;;;5030801;28;20201;-69
2022/07/19 10:46:56;;;;;;;4.93;2.83;;;;;;;;;;5030422;28;20690;-68
2022/07/19 10:49:41;;;;;;;3.88;2.38;;;;;;;;;;5041557;28;20717;-68
2022/07/19 10:52:28;;;;;;;4.00;2.17;;;;;;;;;;5047362;28;20640;-64
2022/07/19 10:55:18;;;;;;;3.95;2.08;;;;;;;;;;5040230;28;20185;-67
2022/07/19 10:57:50;;;;;;;8.07;2.33;;;;;;;;;;5038475;28;20177;-68
2022/07/19 11:00:19;;;;;;;5.95;2.17;;;;;;;;;;5042286;28;20229;-67
2022/07/19 11:02:46;;;;;;;2.55;2.08;;;;;;;;;;5038145;28;20192;-67
2022/07/19 11:05:27;;;;;;;4.40;2.30;;;;;;;;;;5033696;28;20236;-66
2022/07/19 11:07:54;;;;;;;4.40;2.20;;;;;;;;;;5042993;28;20563;-66
2022/07/19 11:10:30;;;;;;;4.38;2.25;;;;;;;;;;5040650;28;20596;-65
2022/07/19 11:12:58;;;;;;;2.63;2.22;;;;;;;;;;5038849;28;20606;-67
2022/07/19 11:15:27;;;;;;;2.67;2.10;;;;;;;;;;5036881;28;20653;-66
2022/07/19 11:18:01;;;;;;;5.13;2.30;;;;;;;;;;5022467;28;20186;-66
2022/07/19 11:20:35;;;;;;;3.17;2.20;;;;;;;;;;5032147;28;20174;-66
2022/07/19 11:23:04;;;;;;;5.68;1.92;;;;;;;;;;5023363;28;20235;-65
2022/07/19 11:25:32;;;;;;;5.97;1.90;;;;;;;;;;5025546;28;20202;-65
2022/07/19 11:27:59;;;;;;;4.78;2.70;;;;;;;;;;5034907;28;20189;-68
2022/07/19 11:30:27;;;;;;;11.68;2.28;;;;;;;;;;5029146;28;20224;-67
2022/07/19 11:32:58;;;;;;;3.72;2.10;;;;;;;;;;5034143;28;20209;-66
2022/07/19 11:35:24;;;;;;;3.03;1.88;;;;;;;;;;5024632;28;20699;-65
2022/07/19 11:37:53;;;;;;;5.00;2.10;;;;;;;;;;5031237;28;20178;-65
2022/07/19 11:40:19;;;;;;;4.05;2.30;;;;;;;;;;5040711;28;20402;-65
2022/07/19 11:42:47;;;;;;;6.50;2.25;;;;;;;;;;5045032;28;20256;-67
2022/07/19 11:45:18;;;;;;;3.72;2.10;;;;;;;;;;5046373;28;20201;-69
2022/07/19 11:47:53;;;;;;;6.72;2.38;;;;;;;;;;5039479;28;20191;-66
2022/07/19 11:50:21;;;;;;;2.15;1.60;;;;;;;;;;5040481;28;20180;-66
2022/07/19 11:52:50;;;;;;;3.08;1.90;;;;;;;;;;5039042;28;20182;-66
2022/07/19 11:55:17;;;;;;;3.05;2.00;;;;;;;;;;5046846;28;20172;-67
2022/07/19 11:57:43;;;;;;;2.58;1.90;;;;;;;;;;5036858;28;20181;-65
2022/07/19 12:00:10;;;;;;;4.25;2.03;;;;;;;;;;5025461;28;20572;-67
2022/07/19 12:03:04;;;;;;;3.55;2.20;;;;;;;;;;5033172;28;20209;-69
2022/07/19 12:05:39;;;;;;;2.17;1.98;;;;;;;;;;5034049;28;20752;-70
2022/07/19 12:08:09;;;;;;;6.47;2.30;;;;;;;;;;5037411;28;20644;-74
2022/07/19 12:10:45;;;;;;;3.33;2.45;;;;;;;;;;5042773;28;20185;-73
2022/07/19 12:13:15;;;;;;;7.60;1.80;;;;;;;;;;5038539;28;20182;-68
2022/07/19 12:15:47;;;;;;;5.40;2.30;;;;;;;;;;5045002;28;20180;-67
2022/07/19 12:18:14;;;;;;;5.97;2.03;;;;;;;;;;5039421;28;20182;-67
2022/07/19 12:20:40;;;;;;;2.17;1.92;;;;;;;;;;5010970;28;20178;-66
2022/07/19 12:23:13;;;;;;;3.97;2.08;;;;;;;;;;5034192;28;20620;-69
2022/07/19 12:25:39;;;;;;;2.05;1.85;;;;;;;;;;5041469;28;20216;-68
2022/07/19 12:28:04;;;;;;;2.70;1.95;;;;;;;;;;5041743;28;20208;-66
2022/07/19 12:30:29;;;;;;;4.03;1.90;;;;;;;;;;5039322;28;20622;-67
2022/07/19 12:33:06;;;;;;;2.88;1.92;;;;;;;;;;5044121;28;20204;-65
2022/07/19 12:35:42;;;;;;;4.60;2.33;;;;;;;;;;5039026;28;20181;-67
2022/07/19 12:38:11;;;;;;;3.65;2.13;;;;;;;;;;5046849;28;20180;-65
2022/07/19 12:40:36;;;;;;;4.60;1.98;;;;;;;;;;5039960;28;20664;-66
2022/07/19 12:43:03;;;;;;;3.72;2.22;;;;;;;;;;5043444;28;20261;-66
2022/07/19 12:45:34;;;;;;;4.10;2.08;;;;;;;;;;5042254;28;20589;-67
2022/07/19 12:48:01;;;;;;;2.45;2.25;;;;;;;;;;5041115;28;20185;-67
2022/07/19 12:50:35;;;;;;;2.60;2.05;;;;;;;;;;5041661;28;20238;-68
2022/07/19 12:53:03;;;;;;;3.47;2.10;;;;;;;;;;5036535;28;20239;-66
2022/07/19 12:55:31;;;;;;;4.60;2.33;;;;;;;;;;5039611;28;20173;-67
2022/07/19 12:57:57;;;;;;;3.30;2.42;;;;;;;;;;5039268;28;20721;-66
2022/07/19 13:00:25;;;;;;;4.25;2.50;;;;;;;;;;5035388;28;20180;-67
2022/07/19 13:02:53;;;;;;;4.75;2.42;;;;;;;;;;5044602;28;20184;-67
2022/07/19 13:05:20;;;;;;;3.47;2.55;;;;;;;;;;5035813;28;20324;-67
2022/07/19 13:07:45;;;;;;;5.90;2.58;;;;;;;;;;5034516;28;20238;-65
2022/07/19 13:10:11;;;;;;;2.92;2.60;;;;;;;;;;5018732;28;20272;-68
2022/07/19 13:12:37;;;;;;;3.92;2.60;;;;;;;;;;5039028;28;20249;-69
2022/07/19 13:15:05;;;;;;;5.32;2.63;;;;;;;;;;5038174;28;20900;-69
2022/07/19 13:17:32;;;;;;;4.30;2.75;;;;;;;;;;5042706;28;20624;-68
2022/07/19 13:19:57;;;;;;;5.72;2.72;;;;;;;;;;5039051;28;20719;-66
2022/07/19 13:22:23;;;;;;;4.78;2.78;;;;;;;;;;5034913;28;20216;-68
2022/07/19 13:24:49;;;;;;;7.32;2.92;;;;;;;;;;5030506;28;20363;-68
2022/07/19 13:27:16;;;;;;;2.92;2.17;;;;;;;;;;5019556;28;20177;-68
2022/07/19 13:29:42;;;;;;;3.28;2.70;;;;;;;;;;5028478;28;20272;-67
2022/07/19 13:32:09;;;;;;;4.18;2.42;;;;;;;;;;5030834;28;20289;-66
2022/07/19 13:34:35;;;;;;;6.32;3.08;;;;;;;;;;5025796;28;20300;-66
2022/07/19 13:37:01;;;;;;;3.92;2.90;;;;;;;;;;5029754;28;20277;-67
2022/07/19 13:39:26;;;;;;;7.28;2.70;;;;;;;;;;5042087;28;20189;-67
2022/07/19 13:41:52;;;;;;;4.78;2.63;;;;;;;;;;5038337;28;20184;-68
2022/07/19 13:44:17;;;;;;;4.40;2.83;;;;;;;;;;5036685;28;20250;-67
2022/07/19 13:46:42;;;;;;;10.95;3.75;;;;;;;;;;5028412;28;20188;-68
2022/07/19 13:49:08;;;;;;;8.00;2.80;;;;;;;;;;5042053;28;20227;-67
2022/07/19 13:51:33;;;;;;;5.65;3.10;;;;;;;;;;5041608;28;20620;-67
2022/07/19 13:53:59;;;;;;;6.07;2.88;;;;;;;;;;5045862;28;20173;-69
2022/07/19 13:56:24;;;;;;;4.43;3.17;;;;;;;;;;5037044;28;20253;-69
2022/07/19 13:58:50;;;;;;;5.60;2.78;;;;;;;;;;5043836;28;20192;-69
2022/07/19 14:01:16;;;;;;;8.10;3.25;;;;;;;;;;5039289;28;20177;-68
2022/07/19 14:03:41;;;;;;;5.03;3.03;;;;;;;;;;5042621;28;20189;-68
2022/07/19 14:06:06;;;;;;;5.78;2.70;;;;;;;;;;5038030;28;20177;-68
2022/07/19 14:08:32;;;;;;;5.55;3.28;;;;;;;;;;5036591;28;20595;-67
2022/07/19 14:10:58;;;;;;;7.22;3.08;;;;;;;;;;5036574;28;20181;-68
2022/07/19 14:13:24;;;;;;;5.93;2.72;;;;;;;;;;5042369;28;20184;-66
2022/07/19 14:15:49;;;;;;;4.55;3.00;;;;;;;;;;5038071;28;20174;-65
2022/07/19 14:18:14;;;;;;;4.93;3.25;;;;;;;;;;5043548;28;20192;-65
2022/07/19 14:20:41;;;;;;;6.45;3.03;;;;;;;;;;5042036;28;20706;-68
2022/07/19 14:23:06;;;;;;;7.50;3.17;;;;;;;;;;5044862;28;20205;-67
2022/07/19 14:25:31;;;;;;;4.93;3.45;;;;;;;;;;5042140;28;20278;-68
2022/07/19 14:27:57;;;;;;;8.13;3.50;;;;;;;;;;5040102;28;20180;-67
2022/07/19 14:30:24;;;;;;;5.50;3.08;;;;;;;;;;5041348;28;20254;-68
2022/07/19 14:32:49;;;;;;;3.47;3.00;;;;;;;;;;5045704;28;20200;-68
2022/07/19 14:35:16;;;;;;;6.30;3.00;;;;;;;;;;5045029;28;20660;-67
2022/07/19 14:37:42;;;;;;;7.40;3.00;;;;;;;;;;5043839;28;20188;-67
2022/07/19 14:40:08;;;;;;;5.88;3.28;;;;;;;;;;5048602;28;20611;-65
2022/07/19 14:42:33;;;;;;;7.35;3.50;;;;;;;;;;5043000;28;20235;-67